sensor_id;sensor_type;location;lat;lon;timestamp;temperature;humidity
14487;DHT22;7329;50.866;4.366;2022-11-27T00:01:43;17.70;99.90
14487;DHT22;7329;50.866;4.366;2022-11-27T00:03:47;17.70;99.90
14487;DHT22;7329;50.866;4.366;2022-11-27T00:05:52;17.70;99.90
14487;DHT22;7329;50.866;4.366;2022-11-27T00:07:55;17.70;99.90
14487;DHT22;7329;50.866;4.366;2022-11-27T00:09:57;17.70;99.90
14487;DHT22;7329;50.866;4.366;2022-11-27T00:11:59;17.70;99.90
14487;DHT22;7329;50.866;4.366;2022-11-27T00:14:01;17.70;99.90
14487;DHT22;7329;50.866;4.366;2022-11-27T00:16:05;17.70;99.90
14487;DHT22;7329;50.866;4.366;2022-11-27T00:18:07;17.70;99.90
14487;DHT22;7329;50.866;4.366;2022-11-27T00:22:15;17.70;99.90
14487;DHT22;7329;50.866;4.366;2022-11-27T00:24:17;17.70;99.90
14487;DHT22;7329;50.866;4.366;2022-11-27T00:26:20;17.70;99.90
14487;DHT22;7329;50.866;4.366;2022-11-27T00:28:23;17.70;99.90
14487;DHT22;7329;50.866;4.366;2022-11-27T00:30:25;17.70;99.90
14487;DHT22;7329;50.866;4.366;2022-11-27T00:32:27;17.70;99.90
14487;DHT22;7329;50.866;4.366;2022-11-27T00:34:30;17.70;99.90
14487;DHT22;7329;50.866;4.366;2022-11-27T00:36:34;17.70;99.90
14487;DHT22;7329;50.866;4.366;2022-11-27T00:38:36;17.70;99.90
14487;DHT22;7329;50.866;4.366;2022-11-27T00:40:39;17.70;99.90
14487;DHT22;7329;50.866;4.366;2022-11-27T00:42:41;17.70;99.90
14487;DHT22;7329;50.866;4.366;2022-11-27T00:44:43;17.70;99.90
14487;DHT22;7329;50.866;4.366;2022-11-27T00:46:46;17.70;99.90
14487;DHT22;7329;50.866;4.366;2022-11-27T00:48:48;17.70;99.90
14487;DHT22;7329;50.866;4.366;2022-11-27T00:50:51;17.70;99.90
14487;DHT22;7329;50.866;4.366;2022-11-27T00:52:54;17.60;99.90
14487;DHT22;7329;50.866;4.366;2022-11-27T00:54:57;17.70;99.90
14487;DHT22;7329;50.866;4.366;2022-11-27T00:56:59;17.60;99.90
14487;DHT22;7329;50.866;4.366;2022-11-27T00:59:02;17.70;99.90
14487;DHT22;7329;50.866;4.366;2022-11-27T01:01:06;17.60;99.90
14487;DHT22;7329;50.866;4.366;2022-11-27T01:03:08;17.70;99.90
14487;DHT22;7329;50.866;4.366;2022-11-27T01:05:11;17.60;99.90
14487;DHT22;7329;50.866;4.366;2022-11-27T01:07:13;17.60;99.90
14487;DHT22;7329;50.866;4.366;2022-11-27T01:09:20;17.60;99.90
14487;DHT22;7329;50.866;4.366;2022-11-27T01:11:26;17.60;99.90
14487;DHT22;7329;50.866;4.366;2022-11-27T01:13:31;17.70;99.90
14487;DHT22;7329;50.866;4.366;2022-11-27T01:15:33;17.70;99.90
14487;DHT22;7329;50.866;4.366;2022-11-27T01:17:36;17.70;99.90
14487;DHT22;7329;50.866;4.366;2022-11-27T01:19:38;17.60;99.90
14487;DHT22;7329;50.866;4.366;2022-11-27T01:21:40;17.60;99.90
14487;DHT22;7329;50.866;4.366;2022-11-27T01:23:43;17.70;99.90
14487;DHT22;7329;50.866;4.366;2022-11-27T01:25:47;17.60;99.90
14487;DHT22;7329;50.866;4.366;2022-11-27T01:27:49;17.60;99.90
14487;DHT22;7329;50.866;4.366;2022-11-27T01:29:51;17.60;99.90
14487;DHT22;7329;50.866;4.366;2022-11-27T01:31:53;17.60;99.90
14487;DHT22;7329;50.866;4.366;2022-11-27T01:33:57;17.60;99.90
14487;DHT22;7329;50.866;4.366;2022-11-27T01:36:02;17.60;99.90
14487;DHT22;7329;50.866;4.366;2022-11-27T01:38:05;17.60;99.90
14487;DHT22;7329;50.866;4.366;2022-11-27T01:40:08;17.60;99.90
14487;DHT22;7329;50.866;4.366;2022-11-27T01:42:12;17.60;99.90
14487;DHT22;7329;50.866;4.366;2022-11-27T01:44:52;17.60;99.90
14487;DHT22;7329;50.866;4.366;2022-11-27T01:46:56;17.60;99.90
14487;DHT22;7329;50.866;4.366;2022-11-27T01:51:22;17.60;99.90
14487;DHT22;7329;50.866;4.366;2022-11-27T01:53:25;17.60;99.90
14487;DHT22;7329;50.866;4.366;2022-11-27T01:55:31;17.60;99.90
14487;DHT22;7329;50.866;4.366;2022-11-27T01:57:40;17.60;99.90
14487;DHT22;7329;50.866;4.366;2022-11-27T01:59:44;17.60;99.90
14487;DHT22;7329;50.866;4.366;2022-11-27T02:01:47;17.60;99.90
14487;DHT22;7329;50.866;4.366;2022-11-27T02:03:50;17.60;99.90
14487;DHT22;7329;50.866;4.366;2022-11-27T02:05:52;17.60;99.90
14487;DHT22;7329;50.866;4.366;2022-11-27T02:07:56;17.60;99.90
14487;DHT22;7329;50.866;4.366;2022-11-27T02:09:59;17.60;99.90
14487;DHT22;7329;50.866;4.366;2022-11-27T02:12:10;17.60;99.90
14487;DHT22;7329;50.866;4.366;2022-11-27T02:14:24;17.60;99.90
14487;DHT22;7329;50.866;4.366;2022-11-27T02:16:35;17.60;99.90
14487;DHT22;7329;50.866;4.366;2022-11-27T02:18:49;17.60;99.90
14487;DHT22;7329;50.866;4.366;2022-11-27T02:21:00;17.60;99.90
14487;DHT22;7329;50.866;4.366;2022-11-27T02:23:31;17.50;99.90
14487;DHT22;7329;50.866;4.366;2022-11-27T02:25:45;17.50;99.90
14487;DHT22;7329;50.866;4.366;2022-11-27T02:28:04;17.50;99.90
14487;DHT22;7329;50.866;4.366;2022-11-27T02:30:13;17.50;99.90
14487;DHT22;7329;50.866;4.366;2022-11-27T02:32:20;17.60;99.90
14487;DHT22;7329;50.866;4.366;2022-11-27T02:34:27;17.50;99.90
14487;DHT22;7329;50.866;4.366;2022-11-27T02:36:33;17.50;99.90
14487;DHT22;7329;50.866;4.366;2022-11-27T02:38:39;17.50;99.90
14487;DHT22;7329;50.866;4.366;2022-11-27T02:40:47;17.50;99.90
14487;DHT22;7329;50.866;4.366;2022-11-27T02:42:55;17.50;99.90
14487;DHT22;7329;50.866;4.366;2022-11-27T02:45:01;17.50;99.90
14487;DHT22;7329;50.866;4.366;2022-11-27T02:47:06;17.50;99.90
14487;DHT22;7329;50.866;4.366;2022-11-27T02:49:11;17.50;99.90
14487;DHT22;7329;50.866;4.366;2022-11-27T02:51:18;17.50;99.90
14487;DHT22;7329;50.866;4.366;2022-11-27T02:53:27;17.50;99.90
14487;DHT22;7329;50.866;4.366;2022-11-27T02:55:32;17.50;99.90
14487;DHT22;7329;50.866;4.366;2022-11-27T02:57:36;17.50;99.90
14487;DHT22;7329;50.866;4.366;2022-11-27T02:59:41;17.50;99.90
14487;DHT22;7329;50.866;4.366;2022-11-27T03:01:50;17.50;99.90
14487;DHT22;7329;50.866;4.366;2022-11-27T03:03:55;17.50;99.90
14487;DHT22;7329;50.866;4.366;2022-11-27T03:06:08;17.50;99.90
14487;DHT22;7329;50.866;4.366;2022-11-27T03:08:16;17.50;99.90
14487;DHT22;7329;50.866;4.366;2022-11-27T03:10:25;17.50;99.90
14487;DHT22;7329;50.866;4.366;2022-11-27T03:12:29;17.50;99.90
14487;DHT22;7329;50.866;4.366;2022-11-27T03:14:32;17.50;99.90
14487;DHT22;7329;50.866;4.366;2022-11-27T03:16:38;17.50;99.90
14487;DHT22;7329;50.866;4.366;2022-11-27T03:18:50;17.50;99.90
14487;DHT22;7329;50.866;4.366;2022-11-27T03:21:02;17.50;99.90
14487;DHT22;7329;50.866;4.366;2022-11-27T03:23:06;17.50;99.90
14487;DHT22;7329;50.866;4.366;2022-11-27T03:25:08;17.50;99.90
14487;DHT22;7329;50.866;4.366;2022-11-27T03:27:13;17.50;99.90
14487;DHT22;7329;50.866;4.366;2022-11-27T03:29:19;17.40;99.90
14487;DHT22;7329;50.866;4.366;2022-11-27T03:31:23;17.40;99.90
14487;DHT22;7329;50.866;4.366;2022-11-27T03:33:26;17.40;99.90
14487;DHT22;7329;50.866;4.366;2022-11-27T03:35:28;17.50;99.90
14487;DHT22;7329;50.866;4.366;2022-11-27T03:37:33;17.40;99.90
14487;DHT22;7329;50.866;4.366;2022-11-27T03:39:35;17.50;99.90
14487;DHT22;7329;50.866;4.366;2022-11-27T03:41:44;17.40;99.90
14487;DHT22;7329;50.866;4.366;2022-11-27T03:43:54;17.40;99.90
14487;DHT22;7329;50.866;4.366;2022-11-27T03:45:59;17.50;99.90
14487;DHT22;7329;50.866;4.366;2022-11-27T03:48:13;17.50;99.90
14487;DHT22;7329;50.866;4.366;2022-11-27T03:50:28;17.40;99.90
14487;DHT22;7329;50.866;4.366;2022-11-27T03:52:41;17.40;99.90
14487;DHT22;7329;50.866;4.366;2022-11-27T03:54:52;17.40;99.90
14487;DHT22;7329;50.866;4.366;2022-11-27T03:57:05;17.40;99.90
14487;DHT22;7329;50.866;4.366;2022-11-27T03:59:14;17.40;99.90
14487;DHT22;7329;50.866;4.366;2022-11-27T04:01:23;17.50;99.90
14487;DHT22;7329;50.866;4.366;2022-11-27T04:03:27;17.40;99.90
14487;DHT22;7329;50.866;4.366;2022-11-27T04:05:30;17.40;99.90
14487;DHT22;7329;50.866;4.366;2022-11-27T04:07:34;17.40;99.90
14487;DHT22;7329;50.866;4.366;2022-11-27T04:09:36;17.40;99.90
14487;DHT22;7329;50.866;4.366;2022-11-27T04:11:38;17.40;99.90
14487;DHT22;7329;50.866;4.366;2022-11-27T04:13:41;17.40;99.90
14487;DHT22;7329;50.866;4.366;2022-11-27T04:15:43;17.40;99.90
14487;DHT22;7329;50.866;4.366;2022-11-27T04:17:45;17.40;99.90
14487;DHT22;7329;50.866;4.366;2022-11-27T04:19:48;17.40;99.90
14487;DHT22;7329;50.866;4.366;2022-11-27T04:21:50;17.40;99.90
14487;DHT22;7329;50.866;4.366;2022-11-27T04:23:54;17.40;99.90
14487;DHT22;7329;50.866;4.366;2022-11-27T04:25:56;17.30;99.90
14487;DHT22;7329;50.866;4.366;2022-11-27T04:28:01;17.40;99.90
14487;DHT22;7329;50.866;4.366;2022-11-27T04:30:04;17.40;99.90
14487;DHT22;7329;50.866;4.366;2022-11-27T04:32:06;17.40;99.90
14487;DHT22;7329;50.866;4.366;2022-11-27T04:34:08;17.40;99.90
14487;DHT22;7329;50.866;4.366;2022-11-27T04:36:11;17.40;99.90
14487;DHT22;7329;50.866;4.366;2022-11-27T04:38:13;17.40;99.90
14487;DHT22;7329;50.866;4.366;2022-11-27T04:40:18;17.40;99.90
14487;DHT22;7329;50.866;4.366;2022-11-27T04:42:20;17.40;99.90
14487;DHT22;7329;50.866;4.366;2022-11-27T04:44:22;17.40;99.90
14487;DHT22;7329;50.866;4.366;2022-11-27T04:46:25;17.40;99.90
14487;DHT22;7329;50.866;4.366;2022-11-27T04:48:27;17.40;99.90
14487;DHT22;7329;50.866;4.366;2022-11-27T04:50:29;17.40;99.90
14487;DHT22;7329;50.866;4.366;2022-11-27T04:52:32;17.40;99.90
14487;DHT22;7329;50.866;4.366;2022-11-27T04:54:34;17.40;99.90
14487;DHT22;7329;50.866;4.366;2022-11-27T04:56:38;17.40;99.90
14487;DHT22;7329;50.866;4.366;2022-11-27T04:58:40;17.40;99.90
14487;DHT22;7329;50.866;4.366;2022-11-27T05:00:42;17.40;99.90
14487;DHT22;7329;50.866;4.366;2022-11-27T05:02:45;17.40;99.90
14487;DHT22;7329;50.866;4.366;2022-11-27T05:04:47;17.40;99.90
14487;DHT22;7329;50.866;4.366;2022-11-27T05:06:49;17.40;99.90
14487;DHT22;7329;50.866;4.366;2022-11-27T05:08:52;17.30;99.90
14487;DHT22;7329;50.866;4.366;2022-11-27T05:11:00;17.30;99.90
14487;DHT22;7329;50.866;4.366;2022-11-27T05:13:04;17.40;99.90
14487;DHT22;7329;50.866;4.366;2022-11-27T05:15:08;17.40;99.90
14487;DHT22;7329;50.866;4.366;2022-11-27T05:17:10;17.30;99.90
14487;DHT22;7329;50.866;4.366;2022-11-27T05:19:14;17.40;99.90
14487;DHT22;7329;50.866;4.366;2022-11-27T05:21:17;17.40;99.90
14487;DHT22;7329;50.866;4.366;2022-11-27T05:23:19;17.40;99.90
14487;DHT22;7329;50.866;4.366;2022-11-27T05:25:21;17.40;99.90
14487;DHT22;7329;50.866;4.366;2022-11-27T05:27:24;17.30;99.90
14487;DHT22;7329;50.866;4.366;2022-11-27T05:29:28;17.40;99.90
14487;DHT22;7329;50.866;4.366;2022-11-27T05:31:31;17.30;99.90
14487;DHT22;7329;50.866;4.366;2022-11-27T05:33:33;17.30;99.90
14487;DHT22;7329;50.866;4.366;2022-11-27T05:35:35;17.30;99.90
14487;DHT22;7329;50.866;4.366;2022-11-27T05:37:38;17.30;99.90
14487;DHT22;7329;50.866;4.366;2022-11-27T05:39:40;17.30;99.90
14487;DHT22;7329;50.866;4.366;2022-11-27T05:41:43;17.30;99.90
14487;DHT22;7329;50.866;4.366;2022-11-27T05:43:46;17.30;99.90
14487;DHT22;7329;50.866;4.366;2022-11-27T05:45:50;17.40;99.90
14487;DHT22;7329;50.866;4.366;2022-11-27T05:47:52;17.40;99.90
14487;DHT22;7329;50.866;4.366;2022-11-27T05:49:54;17.30;99.90
14487;DHT22;7329;50.866;4.366;2022-11-27T05:51:56;17.30;99.90
14487;DHT22;7329;50.866;4.366;2022-11-27T05:53:59;17.30;99.90
14487;DHT22;7329;50.866;4.366;2022-11-27T05:56:02;17.30;99.90
14487;DHT22;7329;50.866;4.366;2022-11-27T05:58:04;17.30;99.90
14487;DHT22;7329;50.866;4.366;2022-11-27T06:00:08;17.30;99.90
14487;DHT22;7329;50.866;4.366;2022-11-27T06:02:12;17.30;99.90
14487;DHT22;7329;50.866;4.366;2022-11-27T06:04:14;17.30;99.90
14487;DHT22;7329;50.866;4.366;2022-11-27T06:06:18;17.30;99.90
14487;DHT22;7329;50.866;4.366;2022-11-27T06:08:20;17.30;99.90
14487;DHT22;7329;50.866;4.366;2022-11-27T06:10:23;17.30;99.90
14487;DHT22;7329;50.866;4.366;2022-11-27T06:12:25;17.30;99.90
14487;DHT22;7329;50.866;4.366;2022-11-27T06:14:27;17.30;99.90
14487;DHT22;7329;50.866;4.366;2022-11-27T06:16:31;17.30;99.90
14487;DHT22;7329;50.866;4.366;2022-11-27T06:18:35;17.30;99.90
14487;DHT22;7329;50.866;4.366;2022-11-27T06:20:37;17.30;99.90
14487;DHT22;7329;50.866;4.366;2022-11-27T06:22:40;17.20;99.90
14487;DHT22;7329;50.866;4.366;2022-11-27T06:24:42;17.20;99.90
14487;DHT22;7329;50.866;4.366;2022-11-27T06:26:45;17.30;99.90
14487;DHT22;7329;50.866;4.366;2022-11-27T06:28:47;17.30;99.90
14487;DHT22;7329;50.866;4.366;2022-11-27T06:30:50;17.20;99.90
14487;DHT22;7329;50.866;4.366;2022-11-27T06:32:52;17.20;99.90
14487;DHT22;7329;50.866;4.366;2022-11-27T06:34:56;17.20;99.90
14487;DHT22;7329;50.866;4.366;2022-11-27T06:36:58;17.30;99.90
14487;DHT22;7329;50.866;4.366;2022-11-27T06:39:01;17.30;99.90
14487;DHT22;7329;50.866;4.366;2022-11-27T06:41:06;17.20;99.90
14487;DHT22;7329;50.866;4.366;2022-11-27T06:43:08;17.30;99.90
14487;DHT22;7329;50.866;4.366;2022-11-27T06:45:10;17.30;99.90
14487;DHT22;7329;50.866;4.366;2022-11-27T06:47:13;17.20;99.90
14487;DHT22;7329;50.866;4.366;2022-11-27T06:49:16;17.30;99.90
14487;DHT22;7329;50.866;4.366;2022-11-27T06:51:23;17.30;99.90
14487;DHT22;7329;50.866;4.366;2022-11-27T06:53:26;17.20;99.90
14487;DHT22;7329;50.866;4.366;2022-11-27T06:55:28;17.20;99.90
14487;DHT22;7329;50.866;4.366;2022-11-27T06:57:30;17.20;99.90
14487;DHT22;7329;50.866;4.366;2022-11-27T06:59:33;17.30;99.90
14487;DHT22;7329;50.866;4.366;2022-11-27T07:01:35;17.30;99.90
14487;DHT22;7329;50.866;4.366;2022-11-27T07:03:37;17.30;99.90
14487;DHT22;7329;50.866;4.366;2022-11-27T07:05:40;17.30;99.90
14487;DHT22;7329;50.866;4.366;2022-11-27T07:07:44;17.30;99.90
14487;DHT22;7329;50.866;4.366;2022-11-27T07:09:46;17.20;99.90
14487;DHT22;7329;50.866;4.366;2022-11-27T07:11:48;17.20;99.90
14487;DHT22;7329;50.866;4.366;2022-11-27T07:13:53;17.20;99.90
14487;DHT22;7329;50.866;4.366;2022-11-27T07:15:58;17.20;99.90
14487;DHT22;7329;50.866;4.366;2022-11-27T07:18:01;17.20;99.90
14487;DHT22;7329;50.866;4.366;2022-11-27T07:20:05;17.30;99.90
14487;DHT22;7329;50.866;4.366;2022-11-27T07:22:08;17.20;99.90
14487;DHT22;7329;50.866;4.366;2022-11-27T07:24:11;17.20;99.90
14487;DHT22;7329;50.866;4.366;2022-11-27T07:26:16;17.20;99.90
14487;DHT22;7329;50.866;4.366;2022-11-27T07:28:18;17.20;99.90
14487;DHT22;7329;50.866;4.366;2022-11-27T07:30:20;17.20;99.90
14487;DHT22;7329;50.866;4.366;2022-11-27T07:32:23;17.20;99.90
14487;DHT22;7329;50.866;4.366;2022-11-27T07:34:25;17.20;99.90
14487;DHT22;7329;50.866;4.366;2022-11-27T07:36:29;17.20;99.90
14487;DHT22;7329;50.866;4.366;2022-11-27T07:38:32;17.20;99.90
14487;DHT22;7329;50.866;4.366;2022-11-27T07:40:37;17.20;99.90
14487;DHT22;7329;50.866;4.366;2022-11-27T07:42:39;17.20;99.90
14487;DHT22;7329;50.866;4.366;2022-11-27T07:44:41;17.20;99.90
14487;DHT22;7329;50.866;4.366;2022-11-27T07:46:44;17.20;99.90
14487;DHT22;7329;50.866;4.366;2022-11-27T07:48:46;17.20;99.90
14487;DHT22;7329;50.866;4.366;2022-11-27T07:50:49;17.20;99.90
14487;DHT22;7329;50.866;4.366;2022-11-27T07:52:51;17.20;99.90
14487;DHT22;7329;50.866;4.366;2022-11-27T07:54:54;17.20;99.90
14487;DHT22;7329;50.866;4.366;2022-11-27T07:56:57;17.20;99.90
14487;DHT22;7329;50.866;4.366;2022-11-27T07:59:00;17.20;99.90
14487;DHT22;7329;50.866;4.366;2022-11-27T08:01:05;17.20;99.90
14487;DHT22;7329;50.866;4.366;2022-11-27T08:03:08;17.20;99.90
14487;DHT22;7329;50.866;4.366;2022-11-27T08:05:11;17.20;99.90
14487;DHT22;7329;50.866;4.366;2022-11-27T08:07:13;17.10;99.90
14487;DHT22;7329;50.866;4.366;2022-11-27T08:09:16;17.10;99.90
14487;DHT22;7329;50.866;4.366;2022-11-27T08:11:20;17.20;99.90
14487;DHT22;7329;50.866;4.366;2022-11-27T08:13:24;17.10;99.90
14487;DHT22;7329;50.866;4.366;2022-11-27T08:15:26;17.20;99.90
14487;DHT22;7329;50.866;4.366;2022-11-27T08:17:29;17.20;99.90
14487;DHT22;7329;50.866;4.366;2022-11-27T08:19:31;17.20;99.90
14487;DHT22;7329;50.866;4.366;2022-11-27T08:21:33;17.20;99.90
14487;DHT22;7329;50.866;4.366;2022-11-27T08:23:35;17.20;99.90
14487;DHT22;7329;50.866;4.366;2022-11-27T08:25:38;17.20;99.90
14487;DHT22;7329;50.866;4.366;2022-11-27T08:27:40;17.10;99.90
14487;DHT22;7329;50.866;4.366;2022-11-27T08:29:44;17.20;99.90
14487;DHT22;7329;50.866;4.366;2022-11-27T08:31:46;17.20;99.90
14487;DHT22;7329;50.866;4.366;2022-11-27T08:33:49;17.10;99.90
14487;DHT22;7329;50.866;4.366;2022-11-27T08:35:51;17.20;99.90
14487;DHT22;7329;50.866;4.366;2022-11-27T08:37:54;17.20;99.90
14487;DHT22;7329;50.866;4.366;2022-11-27T08:39:56;17.10;99.90
14487;DHT22;7329;50.866;4.366;2022-11-27T08:41:59;17.20;99.90
14487;DHT22;7329;50.866;4.366;2022-11-27T08:44:01;17.20;99.90
14487;DHT22;7329;50.866;4.366;2022-11-27T08:46:05;17.10;99.90
14487;DHT22;7329;50.866;4.366;2022-11-27T08:48:08;17.20;99.90
14487;DHT22;7329;50.866;4.366;2022-11-27T08:50:10;17.20;99.90
14487;DHT22;7329;50.866;4.366;2022-11-27T08:52:12;17.20;99.90
14487;DHT22;7329;50.866;4.366;2022-11-27T08:54:15;17.10;99.90
14487;DHT22;7329;50.866;4.366;2022-11-27T08:56:19;17.10;99.90
14487;DHT22;7329;50.866;4.366;2022-11-27T08:58:22;17.20;99.90
14487;DHT22;7329;50.866;4.366;2022-11-27T09:00:24;17.10;99.90
14487;DHT22;7329;50.866;4.366;2022-11-27T09:02:28;17.10;99.90
14487;DHT22;7329;50.866;4.366;2022-11-27T09:04:30;17.20;99.90
14487;DHT22;7329;50.866;4.366;2022-11-27T09:06:33;17.20;99.90
14487;DHT22;7329;50.866;4.366;2022-11-27T09:08:36;17.20;99.90
14487;DHT22;7329;50.866;4.366;2022-11-27T09:10:39;17.10;99.90
14487;DHT22;7329;50.866;4.366;2022-11-27T09:12:41;17.20;99.90
14487;DHT22;7329;50.866;4.366;2022-11-27T09:14:44;17.10;99.90
14487;DHT22;7329;50.866;4.366;2022-11-27T09:16:46;17.10;99.90
14487;DHT22;7329;50.866;4.366;2022-11-27T09:18:51;17.10;99.90
14487;DHT22;7329;50.866;4.366;2022-11-27T09:20:55;17.10;99.90
14487;DHT22;7329;50.866;4.366;2022-11-27T09:22:58;17.10;99.90
14487;DHT22;7329;50.866;4.366;2022-11-27T09:25:02;17.10;99.90
14487;DHT22;7329;50.866;4.366;2022-11-27T09:27:05;17.10;99.90
14487;DHT22;7329;50.866;4.366;2022-11-27T09:29:07;17.10;99.90
14487;DHT22;7329;50.866;4.366;2022-11-27T09:31:12;17.10;99.90
14487;DHT22;7329;50.866;4.366;2022-11-27T09:33:15;17.10;99.90
14487;DHT22;7329;50.866;4.366;2022-11-27T09:35:19;17.10;99.90
14487;DHT22;7329;50.866;4.366;2022-11-27T09:37:21;17.10;99.90
14487;DHT22;7329;50.866;4.366;2022-11-27T09:39:23;17.10;99.90
14487;DHT22;7329;50.866;4.366;2022-11-27T09:41:44;17.10;99.90
14487;DHT22;7329;50.866;4.366;2022-11-27T09:43:51;17.10;99.90
14487;DHT22;7329;50.866;4.366;2022-11-27T09:45:57;17.10;99.90
14487;DHT22;7329;50.866;4.366;2022-11-27T09:48:03;17.10;99.90
14487;DHT22;7329;50.866;4.366;2022-11-27T09:50:11;17.10;99.90
14487;DHT22;7329;50.866;4.366;2022-11-27T09:52:21;17.10;99.90
14487;DHT22;7329;50.866;4.366;2022-11-27T09:54:29;17.10;99.90
14487;DHT22;7329;50.866;4.366;2022-11-27T09:56:35;17.10;99.90
14487;DHT22;7329;50.866;4.366;2022-11-27T09:58:38;17.10;99.90
14487;DHT22;7329;50.866;4.366;2022-11-27T10:00:42;17.10;99.90
14487;DHT22;7329;50.866;4.366;2022-11-27T10:02:45;17.10;99.90
14487;DHT22;7329;50.866;4.366;2022-11-27T10:04:48;17.10;99.90
14487;DHT22;7329;50.866;4.366;2022-11-27T10:07:11;17.10;99.90
14487;DHT22;7329;50.866;4.366;2022-11-27T10:09:20;17.10;99.90
14487;DHT22;7329;50.866;4.366;2022-11-27T10:11:30;17.10;99.90
14487;DHT22;7329;50.866;4.366;2022-11-27T10:13:46;17.10;99.90
14487;DHT22;7329;50.866;4.366;2022-11-27T10:15:55;17.10;99.90
14487;DHT22;7329;50.866;4.366;2022-11-27T10:18:02;17.10;99.90
14487;DHT22;7329;50.866;4.366;2022-11-27T10:20:25;17.10;99.90
14487;DHT22;7329;50.866;4.366;2022-11-27T10:22:41;17.10;99.90
14487;DHT22;7329;50.866;4.366;2022-11-27T10:24:57;17.10;99.90
14487;DHT22;7329;50.866;4.366;2022-11-27T10:27:08;17.10;99.90
14487;DHT22;7329;50.866;4.366;2022-11-27T10:29:28;17.10;99.90
14487;DHT22;7329;50.866;4.366;2022-11-27T10:31:35;17.10;99.90
14487;DHT22;7329;50.866;4.366;2022-11-27T10:33:53;17.10;99.90
14487;DHT22;7329;50.866;4.366;2022-11-27T10:35:57;17.10;99.90
14487;DHT22;7329;50.866;4.366;2022-11-27T10:38:05;17.10;99.90
14487;DHT22;7329;50.866;4.366;2022-11-27T10:40:20;17.10;99.90
14487;DHT22;7329;50.866;4.366;2022-11-27T10:42:30;17.10;99.90
14487;DHT22;7329;50.866;4.366;2022-11-27T10:44:38;17.10;99.90
14487;DHT22;7329;50.866;4.366;2022-11-27T10:46:41;17.10;99.90
14487;DHT22;7329;50.866;4.366;2022-11-27T10:48:44;17.10;99.90
14487;DHT22;7329;50.866;4.366;2022-11-27T10:50:46;17.10;99.90
14487;DHT22;7329;50.866;4.366;2022-11-27T10:52:53;17.10;99.90
14487;DHT22;7329;50.866;4.366;2022-11-27T10:54:59;17.10;99.90
14487;DHT22;7329;50.866;4.366;2022-11-27T10:57:37;17.10;99.90
14487;DHT22;7329;50.866;4.366;2022-11-27T10:59:47;17.10;99.90
14487;DHT22;7329;50.866;4.366;2022-11-27T11:01:52;17.10;99.90
14487;DHT22;7329;50.866;4.366;2022-11-27T11:04:04;17.10;99.90
14487;DHT22;7329;50.866;4.366;2022-11-27T11:06:13;17.10;99.90
14487;DHT22;7329;50.866;4.366;2022-11-27T11:08:18;17.10;99.90
14487;DHT22;7329;50.866;4.366;2022-11-27T11:10:26;17.10;99.90
14487;DHT22;7329;50.866;4.366;2022-11-27T11:12:28;17.10;99.90
14487;DHT22;7329;50.866;4.366;2022-11-27T11:14:32;17.10;99.90
14487;DHT22;7329;50.866;4.366;2022-11-27T11:16:41;17.10;99.90
14487;DHT22;7329;50.866;4.366;2022-11-27T11:18:46;17.10;99.90
14487;DHT22;7329;50.866;4.366;2022-11-27T11:20:51;17.10;99.90
14487;DHT22;7329;50.866;4.366;2022-11-27T11:22:54;17.10;99.90
14487;DHT22;7329;50.866;4.366;2022-11-27T11:24:56;17.20;99.90
14487;DHT22;7329;50.866;4.366;2022-11-27T11:27:02;17.10;99.90
14487;DHT22;7329;50.866;4.366;2022-11-27T11:29:26;17.10;99.90
14487;DHT22;7329;50.866;4.366;2022-11-27T11:31:35;17.20;99.90
14487;DHT22;7329;50.866;4.366;2022-11-27T11:33:46;17.20;99.90
14487;DHT22;7329;50.866;4.366;2022-11-27T11:35:51;17.20;99.90
14487;DHT22;7329;50.866;4.366;2022-11-27T11:37:55;17.20;99.90
14487;DHT22;7329;50.866;4.366;2022-11-27T11:40:00;17.10;99.90
14487;DHT22;7329;50.866;4.366;2022-11-27T11:42:08;17.20;99.90
14487;DHT22;7329;50.866;4.366;2022-11-27T11:44:21;17.20;99.90
14487;DHT22;7329;50.866;4.366;2022-11-27T11:46:25;17.20;99.90
14487;DHT22;7329;50.866;4.366;2022-11-27T11:48:31;17.20;99.90
14487;DHT22;7329;50.866;4.366;2022-11-27T11:50:38;17.20;99.90
14487;DHT22;7329;50.866;4.366;2022-11-27T11:52:49;17.20;99.90
14487;DHT22;7329;50.866;4.366;2022-11-27T11:54:59;17.20;99.90
14487;DHT22;7329;50.866;4.366;2022-11-27T11:57:06;17.20;99.90
14487;DHT22;7329;50.866;4.366;2022-11-27T11:59:16;17.20;99.90
14487;DHT22;7329;50.866;4.366;2022-11-27T12:01:44;17.20;99.90
14487;DHT22;7329;50.866;4.366;2022-11-27T12:04:06;17.20;99.90
14487;DHT22;7329;50.866;4.366;2022-11-27T12:06:24;17.20;99.90
14487;DHT22;7329;50.866;4.366;2022-11-27T12:08:40;17.20;99.90
14487;DHT22;7329;50.866;4.366;2022-11-27T12:10:53;17.20;99.90
14487;DHT22;7329;50.866;4.366;2022-11-27T12:13:05;17.20;99.90
14487;DHT22;7329;50.866;4.366;2022-11-27T12:15:19;17.20;99.90
14487;DHT22;7329;50.866;4.366;2022-11-27T12:17:34;17.10;99.90
14487;DHT22;7329;50.866;4.366;2022-11-27T12:20:08;17.20;99.90
14487;DHT22;7329;50.866;4.366;2022-11-27T12:22:23;17.20;99.90
14487;DHT22;7329;50.866;4.366;2022-11-27T12:24:39;17.20;99.90
14487;DHT22;7329;50.866;4.366;2022-11-27T12:26:56;17.10;99.90
14487;DHT22;7329;50.866;4.366;2022-11-27T12:29:15;17.10;99.90
14487;DHT22;7329;50.866;4.366;2022-11-27T12:31:31;17.10;99.90
14487;DHT22;7329;50.866;4.366;2022-11-27T12:33:51;17.20;99.90
14487;DHT22;7329;50.866;4.366;2022-11-27T12:36:06;17.10;99.90
14487;DHT22;7329;50.866;4.366;2022-11-27T12:38:29;17.10;99.90
14487;DHT22;7329;50.866;4.366;2022-11-27T12:40:42;17.10;99.90
14487;DHT22;7329;50.866;4.366;2022-11-27T12:42:55;17.10;99.90
14487;DHT22;7329;50.866;4.366;2022-11-27T12:45:04;17.10;99.90
14487;DHT22;7329;50.866;4.366;2022-11-27T12:47:10;17.10;99.90
14487;DHT22;7329;50.866;4.366;2022-11-27T12:49:19;17.10;99.90
14487;DHT22;7329;50.866;4.366;2022-11-27T12:51:26;17.10;99.90
14487;DHT22;7329;50.866;4.366;2022-11-27T12:53:35;17.10;99.90
14487;DHT22;7329;50.866;4.366;2022-11-27T12:55:40;17.10;99.90
14487;DHT22;7329;50.866;4.366;2022-11-27T12:57:46;17.10;99.90
14487;DHT22;7329;50.866;4.366;2022-11-27T12:59:52;17.10;99.90
14487;DHT22;7329;50.866;4.366;2022-11-27T13:02:02;17.10;99.90
14487;DHT22;7329;50.866;4.366;2022-11-27T13:04:17;17.10;99.90
14487;DHT22;7329;50.866;4.366;2022-11-27T13:06:25;17.10;99.90
14487;DHT22;7329;50.866;4.366;2022-11-27T13:08:33;17.10;99.90
14487;DHT22;7329;50.866;4.366;2022-11-27T13:10:44;17.10;99.90
14487;DHT22;7329;50.866;4.366;2022-11-27T13:12:56;17.10;99.90
14487;DHT22;7329;50.866;4.366;2022-11-27T13:15:06;17.10;99.90
14487;DHT22;7329;50.866;4.366;2022-11-27T13:17:12;17.10;99.90
14487;DHT22;7329;50.866;4.366;2022-11-27T13:19:23;17.10;99.90
14487;DHT22;7329;50.866;4.366;2022-11-27T13:21:31;17.10;99.90
14487;DHT22;7329;50.866;4.366;2022-11-27T13:23:34;17.10;99.90
14487;DHT22;7329;50.866;4.366;2022-11-27T13:25:41;17.10;99.90
14487;DHT22;7329;50.866;4.366;2022-11-27T13:27:46;17.10;99.90
14487;DHT22;7329;50.866;4.366;2022-11-27T13:29:53;17.10;99.90
14487;DHT22;7329;50.866;4.366;2022-11-27T13:31:57;17.00;99.90